createdAt,value
2018-12-13T00:00:26.323Z,61.60
2018-12-13T00:01:28.012Z,61.60
2018-12-13T00:02:29.483Z,61.30
2018-12-13T00:03:30.951Z,61.40
2018-12-13T00:04:32.651Z,61.50
2018-12-13T00:05:34.055Z,61.40
2018-12-13T00:06:35.124Z,61.10
2018-12-13T00:07:36.085Z,61.20
2018-12-13T00:08:37.155Z,61.20
2018-12-13T00:09:38.240Z,61.20
2018-12-13T00:10:39.436Z,61.20
2018-12-13T00:11:40.434Z,61.00
2018-12-13T00:12:41.406Z,61.20
2018-12-13T00:13:42.391Z,61.00
2018-12-13T00:14:43.455Z,60.80
2018-12-13T00:15:44.539Z,61.00
2018-12-13T00:16:45.494Z,60.90
2018-12-13T00:17:46.560Z,61.00
2018-12-13T00:18:47.527Z,60.90
2018-12-13T00:19:48.479Z,60.90
2018-12-13T00:20:49.449Z,61.40
2018-12-13T00:21:50.419Z,61.00
2018-12-13T00:22:51.495Z,61.10
2018-12-13T00:23:52.453Z,60.90
2018-12-13T00:24:53.528Z,60.80
2018-12-13T00:25:54.611Z,60.80
2018-12-13T00:26:55.673Z,60.90
2018-12-13T00:27:56.630Z,60.90
2018-12-13T00:28:57.599Z,60.80
2018-12-13T00:29:58.599Z,60.80
2018-12-13T00:30:59.570Z,60.70
2018-12-13T00:32:00.675Z,60.70
2018-12-13T00:33:01.760Z,60.90
2018-12-13T00:34:02.950Z,61.00
2018-12-13T00:35:04.121Z,60.90
2018-12-13T00:36:05.083Z,60.90
2018-12-13T00:37:06.047Z,61.00
2018-12-13T00:38:07.004Z,61.00
2018-12-13T00:39:07.955Z,61.00
2018-12-13T00:40:09.153Z,61.00
2018-12-13T00:41:10.248Z,61.10
2018-12-13T00:42:11.205Z,61.30
2018-12-13T00:43:12.275Z,61.10
2018-12-13T00:44:13.256Z,61.60
2018-12-13T00:45:14.236Z,61.20
2018-12-13T00:46:15.252Z,61.10
2018-12-13T00:47:16.224Z,60.70
2018-12-13T00:48:17.175Z,60.50
2018-12-13T00:49:18.137Z,60.20
2018-12-13T00:50:19.111Z,60.80
2018-12-13T00:51:20.071Z,60.60
2018-12-13T00:52:21.045Z,61.20
2018-12-13T00:53:22.020Z,60.80
2018-12-13T00:54:22.990Z,60.90
2018-12-13T00:55:23.965Z,60.80
2018-12-13T00:56:25.049Z,60.60
2018-12-13T00:57:26.120Z,60.80
2018-12-13T00:58:27.288Z,60.80
2018-12-13T00:59:28.456Z,60.80
2018-12-13T01:00:29.444Z,61.30
2018-12-13T01:01:30.515Z,61.20
2018-12-13T01:02:31.546Z,61.00
2018-12-13T01:03:32.677Z,60.80
2018-12-13T01:04:33.677Z,61.60
2018-12-13T01:05:34.656Z,60.80
2018-12-13T01:06:36.592Z,61.00
2018-12-13T01:07:37.575Z,60.90
2018-12-13T01:08:38.548Z,61.00
2018-12-13T01:09:39.513Z,61.00
2018-12-13T01:10:40.487Z,60.70
2018-12-13T01:11:41.557Z,60.60
2018-12-13T01:12:42.532Z,60.70
2018-12-13T01:13:43.498Z,60.70
2018-12-13T01:14:44.572Z,60.70
2018-12-13T01:15:45.548Z,60.60
2018-12-13T01:16:46.525Z,60.80
2018-12-13T01:17:47.587Z,60.70
2018-12-13T01:18:48.556Z,61.60
2018-12-13T01:19:49.585Z,60.80
2018-12-13T01:20:50.544Z,60.70
2018-12-13T01:21:51.518Z,60.50
2018-12-13T01:22:52.488Z,60.70
2018-12-13T01:23:53.446Z,60.50
2018-12-13T01:24:54.508Z,60.80
2018-12-13T01:25:55.582Z,60.90
2018-12-13T01:26:56.561Z,60.70
2018-12-13T01:27:57.519Z,60.80
2018-12-13T01:28:58.490Z,60.70
2018-12-13T01:29:59.464Z,60.80
2018-12-13T01:31:00.427Z,61.00
2018-12-13T01:32:01.405Z,61.40
2018-12-13T01:33:02.511Z,61.70
2018-12-13T01:34:03.580Z,61.20
2018-12-13T01:35:04.542Z,61.10
2018-12-13T01:36:05.505Z,61.20
2018-12-13T01:37:06.476Z,61.80
2018-12-13T01:38:07.544Z,61.00
2018-12-13T01:39:08.500Z,60.80
2018-12-13T01:40:09.463Z,60.70
2018-12-13T01:41:10.554Z,60.80
2018-12-13T01:42:11.565Z,60.70
2018-12-13T01:43:12.539Z,61.00
2018-12-13T01:44:13.510Z,61.40
2018-12-13T01:45:14.495Z,61.00
2018-12-13T01:46:15.580Z,61.60
2018-12-13T01:47:16.809Z,60.70
2018-12-13T01:48:17.771Z,60.50
2018-12-13T01:49:18.747Z,60.70
2018-12-13T01:50:19.808Z,60.90
2018-12-13T01:51:20.789Z,60.90
2018-12-13T01:52:21.763Z,60.90
2018-12-13T01:53:22.925Z,61.10
2018-12-13T01:54:23.891Z,61.10
2018-12-13T01:55:24.859Z,61.20
2018-12-13T01:56:25.844Z,61.10
2018-12-13T01:57:26.812Z,61.30
2018-12-13T01:58:27.981Z,62.40
2018-12-13T01:59:28.937Z,61.20
2018-12-13T02:00:30.007Z,61.60
2018-12-13T02:01:31.080Z,61.80
2018-12-13T02:02:32.039Z,61.60
2018-12-13T02:03:33.106Z,61.80
2018-12-13T02:04:34.268Z,61.80
2018-12-13T02:05:35.259Z,61.40
2018-12-13T02:06:36.216Z,61.70
2018-12-13T02:07:37.177Z,61.80
2018-12-13T02:08:38.127Z,62.00
2018-12-13T02:09:39.084Z,61.60
2018-12-13T02:10:40.156Z,62.00
2018-12-13T02:11:41.119Z,61.80
2018-12-13T02:12:42.096Z,61.60
2018-12-13T02:13:43.043Z,61.50
2018-12-13T02:14:44.136Z,61.50
2018-12-13T02:15:45.211Z,61.50
2018-12-13T02:16:46.288Z,61.90
2018-12-13T02:17:47.252Z,61.30
2018-12-13T02:18:48.224Z,61.30
2018-12-13T02:19:49.292Z,60.80
2018-12-13T02:20:50.359Z,61.40
2018-12-13T02:21:51.531Z,61.20
2018-12-13T02:22:52.509Z,61.20
2018-12-13T02:23:53.479Z,61.40
2018-12-13T02:24:54.448Z,61.20
2018-12-13T02:25:55.428Z,60.90
2018-12-13T02:26:56.383Z,60.70
2018-12-13T02:27:57.356Z,60.60
2018-12-13T02:28:58.535Z,60.80
2018-12-13T02:29:59.616Z,60.60
2018-12-13T02:31:00.595Z,60.80
2018-12-13T02:32:01.565Z,60.70
2018-12-13T02:33:03.083Z,60.80
2018-12-13T02:34:04.160Z,60.80
2018-12-13T02:35:05.359Z,60.70
2018-12-13T02:36:06.426Z,60.60
2018-12-13T02:37:07.394Z,60.60
2018-12-13T02:38:08.466Z,60.60
2018-12-13T02:39:09.565Z,60.50
2018-12-13T02:40:10.621Z,60.60
2018-12-13T02:41:11.579Z,60.60
2018-12-13T02:42:12.649Z,60.70
2018-12-13T02:43:13.622Z,60.60
2018-12-13T02:44:14.861Z,60.70
2018-12-13T02:45:15.943Z,60.90
2018-12-13T02:46:16.931Z,60.80
2018-12-13T02:47:17.892Z,60.70
2018-12-13T02:48:18.857Z,60.70
2018-12-13T02:49:19.819Z,60.60
2018-12-13T02:50:20.789Z,60.80
2018-12-13T02:51:21.760Z,60.80
2018-12-13T02:52:22.716Z,60.70
2018-12-13T02:53:23.784Z,60.80
2018-12-13T02:54:24.760Z,60.50
2018-12-13T02:55:25.827Z,60.60
2018-12-13T02:56:26.896Z,60.70
2018-12-13T02:57:27.888Z,60.70
2018-12-13T02:58:28.848Z,60.90
2018-12-13T02:59:29.913Z,60.70
2018-12-13T03:00:31.012Z,60.80
2018-12-13T03:01:31.979Z,60.80
2018-12-13T03:02:33.058Z,60.80
2018-12-13T03:03:34.116Z,60.80
2018-12-13T03:04:36.184Z,60.70
2018-12-13T03:05:37.360Z,60.70
2018-12-13T03:06:38.335Z,60.80
2018-12-13T03:07:39.506Z,60.80
2018-12-13T03:08:40.467Z,60.70
2018-12-13T03:09:41.474Z,60.90
2018-12-13T03:10:42.439Z,60.80
2018-12-13T03:11:43.419Z,60.70
2018-12-13T03:12:44.385Z,60.70
2018-12-13T03:13:45.352Z,60.70
2018-12-13T03:14:46.307Z,60.70
2018-12-13T03:15:47.309Z,60.80
2018-12-13T03:16:48.277Z,60.60
2018-12-13T03:17:49.288Z,61.20
2018-12-13T03:18:50.256Z,61.00
2018-12-13T03:19:51.220Z,61.10
2018-12-13T03:20:52.176Z,61.00
2018-12-13T03:21:53.147Z,61.10
2018-12-13T03:22:54.110Z,61.30
2018-12-13T03:23:55.319Z,61.40
2018-12-13T03:24:56.284Z,61.50
2018-12-13T03:25:57.251Z,61.40
2018-12-13T03:26:58.336Z,61.40
2018-12-13T03:27:59.499Z,61.30
2018-12-13T03:29:00.461Z,61.50
2018-12-13T03:30:01.526Z,61.50
2018-12-13T03:31:02.833Z,61.80
2018-12-13T03:32:03.896Z,61.80
2018-12-13T03:33:05.076Z,61.40
2018-12-13T03:34:06.135Z,61.70
2018-12-13T03:35:07.253Z,61.90
2018-12-13T03:36:08.333Z,61.60
2018-12-13T03:37:09.326Z,61.80
2018-12-13T03:38:10.389Z,61.90
2018-12-13T03:39:11.560Z,63.00
2018-12-13T03:40:12.637Z,61.90
2018-12-13T03:41:13.614Z,62.10
2018-12-13T03:42:14.904Z,62.40
2018-12-13T03:43:15.863Z,62.10
2018-12-13T03:44:16.927Z,62.20
2018-12-13T03:45:18.097Z,62.10
2018-12-13T03:46:19.164Z,61.90
2018-12-13T03:47:20.156Z,62.30
2018-12-13T03:48:21.127Z,62.30
2018-12-13T03:49:22.085Z,62.30
2018-12-13T03:50:23.055Z,62.50
2018-12-13T03:51:24.019Z,62.30
2018-12-13T03:52:25.087Z,62.50
2018-12-13T03:53:26.053Z,62.30
2018-12-13T03:54:27.117Z,62.50
2018-12-13T03:55:28.176Z,62.60
2018-12-13T03:56:29.155Z,62.80
2018-12-13T03:57:30.111Z,62.70
2018-12-13T03:58:31.077Z,62.30
2018-12-13T03:59:32.039Z,62.30
2018-12-13T04:00:33.172Z,62.40
2018-12-13T04:01:34.149Z,62.10
2018-12-13T04:02:35.219Z,62.00
2018-12-13T04:03:36.491Z,61.90
2018-12-13T04:04:37.457Z,62.00
2018-12-13T04:05:38.427Z,62.20
2018-12-13T04:06:39.389Z,62.20
2018-12-13T04:07:40.352Z,63.00
2018-12-13T04:08:41.326Z,62.20
2018-12-13T04:09:42.500Z,62.20
2018-12-13T04:10:43.455Z,62.20
2018-12-13T04:11:44.698Z,62.20
2018-12-13T04:12:45.704Z,62.30
2018-12-13T04:13:46.661Z,62.50
2018-12-13T04:14:47.611Z,62.60
2018-12-13T04:15:48.577Z,62.50
2018-12-13T04:16:49.585Z,63.10
2018-12-13T04:17:50.965Z,62.40
2018-12-13T04:18:52.023Z,62.80
2018-12-13T04:19:52.983Z,62.60
2018-12-13T04:20:54.056Z,62.60
2018-12-13T04:21:57.043Z,62.40
2018-12-13T04:22:58.016Z,62.40
2018-12-13T04:23:59.187Z,63.00
2018-12-13T04:25:00.144Z,62.50
2018-12-13T04:26:01.205Z,63.20
2018-12-13T04:27:02.404Z,62.50
2018-12-13T04:28:03.467Z,62.60
2018-12-13T04:29:04.477Z,62.50
2018-12-13T04:30:05.752Z,62.60
2018-12-13T04:31:06.735Z,62.50
2018-12-13T04:32:07.806Z,62.60
2018-12-13T04:33:08.768Z,62.60
2018-12-13T04:34:09.731Z,62.70
2018-12-13T04:35:10.735Z,62.70
2018-12-13T04:36:13.479Z,62.70
2018-12-13T04:37:14.701Z,62.80
2018-12-13T04:38:15.772Z,63.30
2018-12-13T04:39:16.728Z,62.50
2018-12-13T04:40:17.936Z,62.30
2018-12-13T04:41:18.968Z,62.20
2018-12-13T04:42:20.047Z,62.30
2018-12-13T04:43:28.082Z,62.60
2018-12-13T04:44:29.051Z,62.30
2018-12-13T04:45:30.023Z,61.80
2018-12-13T04:46:30.984Z,61.80
2018-12-13T04:47:31.949Z,61.90
2018-12-13T04:48:32.967Z,62.40
2018-12-13T04:49:33.934Z,62.70
2018-12-13T04:50:34.997Z,62.00
2018-12-13T04:51:36.060Z,62.00
2018-12-13T04:52:37.248Z,61.60
2018-12-13T04:53:38.214Z,61.60
2018-12-13T04:54:39.191Z,61.50
2018-12-13T04:55:40.154Z,61.40
2018-12-13T04:56:41.244Z,61.50
2018-12-13T04:57:42.216Z,61.60
2018-12-13T04:58:43.187Z,61.60
2018-12-13T04:59:44.158Z,61.60
2018-12-13T05:00:45.119Z,61.40
2018-12-13T05:01:46.092Z,61.60
2018-12-13T05:02:47.150Z,61.70
2018-12-13T05:03:48.107Z,61.50
2018-12-13T05:04:49.275Z,61.30
2018-12-13T05:05:50.247Z,61.20
2018-12-13T05:06:51.219Z,61.10
2018-12-13T05:07:52.189Z,61.20
2018-12-13T05:08:53.331Z,61.30
2018-12-13T05:09:54.399Z,61.20
2018-12-13T05:10:55.356Z,61.50
2018-12-13T05:11:56.347Z,61.80
2018-12-13T05:12:57.307Z,61.60
2018-12-13T05:13:58.272Z,61.60
2018-12-13T05:14:59.338Z,62.20
2018-12-13T05:16:00.304Z,61.80
2018-12-13T05:17:01.325Z,62.50
2018-12-13T05:18:02.498Z,61.80
2018-12-13T05:19:03.666Z,61.90
2018-12-13T05:20:04.786Z,61.80
2018-12-13T05:21:05.951Z,61.80
2018-12-13T05:22:06.916Z,62.00
2018-12-13T05:23:08.087Z,62.10
2018-12-13T05:24:09.098Z,61.90
2018-12-13T05:25:10.096Z,61.90
2018-12-13T05:26:11.071Z,62.00
2018-12-13T05:27:12.047Z,62.20
2018-12-13T05:28:13.124Z,62.20
2018-12-13T05:29:14.082Z,62.20
2018-12-13T05:30:15.044Z,62.40
2018-12-13T05:31:16.012Z,62.80
2018-12-13T05:32:17.036Z,62.30
2018-12-13T05:33:18.099Z,62.30
2018-12-13T05:34:19.079Z,62.30
2018-12-13T05:35:20.149Z,62.20
2018-12-13T05:36:21.100Z,62.20
2018-12-13T05:37:22.072Z,62.40
2018-12-13T05:38:23.036Z,62.80
2018-12-13T05:39:24.009Z,62.30
2018-12-13T05:40:24.974Z,62.30
2018-12-13T05:41:26.044Z,62.30
2018-12-13T05:42:27.157Z,62.50
2018-12-13T05:43:28.139Z,62.20
2018-12-13T05:44:29.201Z,62.40
2018-12-13T05:46:33.695Z,62.50
2018-12-13T05:47:34.685Z,62.60
2018-12-13T05:48:35.660Z,62.40
2018-12-13T05:49:36.607Z,62.40
2018-12-13T05:50:37.680Z,62.50
2018-12-13T05:51:38.655Z,62.20
2018-12-13T05:52:39.685Z,62.60
2018-12-13T05:53:40.707Z,62.20
2018-12-13T05:54:41.674Z,61.90
2018-12-13T05:55:42.657Z,62.70
2018-12-13T05:56:43.624Z,62.40
2018-12-13T05:57:44.617Z,62.30
2018-12-13T05:58:45.580Z,61.80
2018-12-13T05:59:46.547Z,62.70
2018-12-13T06:00:47.523Z,62.30
2018-12-13T06:01:48.803Z,62.00
2018-12-13T06:02:49.779Z,61.60
2018-12-13T06:03:50.875Z,62.70
2018-12-13T06:04:51.843Z,61.80
2018-12-13T06:05:52.931Z,61.40
2018-12-13T06:06:53.889Z,61.30
2018-12-13T06:07:55.248Z,61.40
2018-12-13T06:08:56.332Z,61.40
2018-12-13T06:09:57.408Z,60.80
2018-12-13T06:10:58.579Z,60.90
2018-12-13T06:11:59.650Z,61.00
2018-12-13T06:13:00.739Z,61.20
2018-12-13T06:14:01.999Z,61.30
2018-12-13T06:15:03.887Z,61.20
2018-12-13T06:16:04.876Z,61.40
2018-12-13T06:17:06.491Z,62.30
2018-12-13T06:18:07.468Z,61.50
2018-12-13T06:19:08.436Z,61.70
2018-12-13T06:20:09.420Z,61.80
2018-12-13T06:21:11.957Z,61.80
2018-12-13T06:22:13.252Z,61.90
2018-12-13T06:23:14.223Z,62.20
2018-12-13T06:24:15.240Z,62.00
2018-12-13T06:25:16.249Z,62.00
2018-12-13T06:26:17.343Z,61.60
2018-12-13T06:27:18.316Z,61.60
2018-12-13T06:28:19.399Z,61.60
2018-12-13T06:29:20.363Z,61.30
2018-12-13T06:30:21.328Z,61.20
2018-12-13T06:31:22.305Z,61.30
2018-12-13T06:32:23.520Z,62.10
2018-12-13T06:33:24.900Z,61.20
2018-12-13T06:34:26.179Z,61.20
2018-12-13T06:35:27.145Z,61.10
2018-12-13T06:36:28.197Z,60.80
2018-12-13T06:37:29.236Z,60.80
2018-12-13T06:38:30.240Z,60.90
2018-12-13T06:39:31.421Z,59.90
2018-12-13T06:40:32.411Z,60.10
2018-12-13T06:41:33.704Z,59.50
2018-12-13T06:42:34.676Z,58.70
2018-12-13T06:43:35.651Z,58.80
2018-12-13T06:44:36.727Z,59.20
2018-12-13T06:45:37.675Z,59.40
2018-12-13T06:46:38.701Z,58.60
2018-12-13T06:47:39.763Z,58.50
2018-12-13T06:48:41.026Z,58.60
2018-12-13T06:49:41.997Z,58.50
2018-12-13T06:50:43.060Z,58.60
2018-12-13T06:51:44.038Z,58.70
2018-12-13T06:52:45.119Z,58.60
2018-12-13T06:53:46.083Z,58.60
2018-12-13T06:54:47.042Z,59.30
2018-12-13T06:55:48.111Z,58.60
2018-12-13T06:56:49.073Z,58.70
2018-12-13T06:57:50.056Z,58.20
2018-12-13T06:58:51.039Z,58.60
2018-12-13T06:59:52.236Z,58.60
2018-12-13T07:00:53.226Z,58.50
2018-12-13T07:01:54.185Z,58.60
2018-12-13T07:02:55.148Z,58.70
2018-12-13T07:03:56.128Z,58.60
2018-12-13T07:04:57.108Z,58.20
2018-12-13T07:05:58.067Z,58.10
2018-12-13T07:07:06.025Z,58.00
2018-12-13T07:08:07.953Z,57.50
2018-12-13T07:09:09.180Z,57.50
2018-12-13T07:10:10.196Z,58.00
2018-12-13T07:11:11.957Z,58.10
2018-12-13T07:12:12.976Z,58.10
2018-12-13T07:13:13.942Z,57.70
2018-12-13T07:14:15.020Z,57.80
2018-12-13T07:15:16.088Z,58.10
2018-12-13T07:16:17.155Z,57.40
2018-12-13T07:17:18.143Z,57.70
2018-12-13T07:18:19.112Z,58.00
2018-12-13T07:19:20.085Z,58.10
2018-12-13T07:20:21.300Z,57.90
2018-12-13T07:21:22.274Z,58.10
2018-12-13T07:22:23.360Z,58.50
2018-12-13T07:23:24.319Z,58.10
2018-12-13T07:24:25.288Z,58.50
2018-12-13T07:25:26.740Z,58.00
2018-12-13T07:26:27.899Z,58.20
2018-12-13T07:27:28.884Z,57.70
2018-12-13T07:28:29.862Z,57.80
2018-12-13T07:29:31.012Z,58.00
2018-12-13T07:30:31.997Z,57.80
2018-12-13T07:31:32.968Z,57.50
2018-12-13T07:32:34.070Z,58.10
2018-12-13T07:33:35.098Z,57.70
2018-12-13T07:34:36.076Z,57.60
2018-12-13T07:35:37.061Z,58.00
2018-12-13T07:36:38.023Z,58.20
2018-12-13T07:37:38.993Z,57.80
2018-12-13T07:38:39.960Z,58.10
2018-12-13T07:39:40.969Z,57.60
2018-12-13T07:40:42.150Z,57.50
2018-12-13T07:41:43.139Z,57.60
2018-12-13T07:42:45.087Z,57.90
2018-12-13T07:43:46.262Z,57.60
2018-12-13T07:44:47.272Z,57.70
2018-12-13T07:45:48.347Z,57.70
2018-12-13T07:46:49.365Z,57.80
2018-12-13T07:47:50.340Z,57.10
2018-12-13T07:48:56.460Z,57.20
2018-12-13T07:49:54.335Z,57.70
2018-12-13T07:50:55.303Z,57.80
2018-12-13T07:51:56.395Z,57.60
2018-12-13T07:52:57.465Z,57.60
2018-12-13T07:53:58.443Z,57.00
2018-12-13T07:54:59.421Z,57.50
2018-12-13T07:56:00.395Z,57.10
2018-12-13T07:57:01.368Z,57.00
2018-12-13T07:58:02.459Z,57.10
2018-12-13T07:59:03.653Z,57.30
2018-12-13T08:00:04.936Z,56.90
2018-12-13T08:01:05.917Z,57.20
2018-12-13T08:02:06.932Z,57.40
2018-12-13T08:03:07.936Z,56.80
2018-12-13T08:04:09.133Z,56.90
2018-12-13T08:05:10.240Z,56.60
2018-12-13T08:06:11.212Z,56.50
2018-12-13T08:07:19.481Z,56.90
2018-12-13T08:08:20.920Z,56.90
2018-12-13T08:09:22.300Z,56.50
2018-12-13T08:10:23.293Z,56.10
2018-12-13T08:11:24.364Z,56.50
2018-12-13T08:12:25.341Z,56.70
2018-12-13T08:13:26.336Z,56.30
2018-12-13T08:14:27.355Z,56.50
2018-12-13T08:15:28.435Z,56.40
2018-12-13T08:16:29.629Z,56.40
2018-12-13T08:17:30.718Z,56.00
2018-12-13T08:18:31.724Z,56.30
2018-12-13T08:19:32.824Z,55.70
2018-12-13T08:20:33.932Z,55.80
2018-12-13T08:21:34.920Z,56.30
2018-12-13T08:22:35.908Z,55.90
2018-12-13T08:23:36.922Z,55.70
2018-12-13T08:24:37.915Z,55.80
2018-12-13T08:25:38.983Z,56.00
2018-12-13T08:26:39.986Z,56.20
2018-12-13T08:27:40.987Z,56.40
2018-12-13T08:28:42.201Z,56.60
2018-12-13T08:29:46.004Z,56.50
2018-12-13T08:30:47.103Z,56.10
2018-12-13T08:31:48.078Z,56.50
2018-12-13T08:32:49.172Z,56.00
2018-12-13T08:33:50.151Z,56.10
2018-12-13T08:35:58.848Z,56.30
2018-12-13T08:36:59.830Z,56.20
2018-12-13T08:38:00.915Z,55.70
2018-12-13T08:39:04.123Z,56.00
2018-12-13T08:40:05.356Z,55.90
2018-12-13T08:41:06.396Z,56.10
2018-12-13T08:42:07.385Z,55.30
2018-12-13T08:43:08.373Z,55.10
2018-12-13T08:44:09.468Z,55.10
2018-12-13T08:45:10.741Z,55.40
2018-12-13T08:46:11.715Z,54.50
2018-12-13T08:47:12.809Z,55.10
2018-12-13T08:48:13.907Z,55.00
2018-12-13T08:49:15.007Z,55.50
2018-12-13T08:50:16.012Z,55.20
2018-12-13T08:51:16.994Z,55.40
2018-12-13T08:52:18.015Z,55.60
2018-12-13T08:53:19.041Z,56.00
2018-12-13T08:54:20.007Z,55.70
2018-12-13T08:55:21.031Z,55.80
2018-12-13T08:56:23.339Z,56.00
2018-12-13T08:57:24.437Z,55.80
2018-12-13T08:58:25.519Z,55.70
2018-12-13T08:59:26.513Z,56.00
2018-12-13T09:00:27.507Z,55.10
2018-12-13T09:01:28.606Z,55.70
2018-12-13T09:02:29.620Z,55.50
2018-12-13T09:03:30.695Z,55.10
2018-12-13T09:04:31.720Z,54.80
2018-12-13T09:05:32.713Z,55.00
2018-12-13T09:06:33.684Z,55.00
2018-12-13T09:07:34.754Z,55.00
2018-12-13T09:08:35.873Z,55.30
2018-12-13T09:09:36.844Z,55.50
2018-12-13T09:10:37.828Z,55.30
2018-12-13T09:11:38.931Z,55.30
2018-12-13T09:12:40.776Z,55.00
2018-12-13T09:13:41.917Z,55.10
2018-12-13T09:14:43.052Z,55.20
2018-12-13T09:15:44.135Z,54.50
2018-12-13T09:16:45.263Z,54.70
2018-12-13T09:17:46.359Z,54.50
2018-12-13T09:18:47.349Z,54.70
2018-12-13T09:19:48.341Z,54.70
2018-12-13T09:20:49.335Z,55.10
2018-12-13T09:21:50.324Z,55.00
2018-12-13T09:22:51.409Z,54.50
2018-12-13T09:23:52.605Z,54.70
2018-12-13T09:24:53.619Z,54.60
2018-12-13T09:25:54.707Z,54.60
2018-12-13T09:26:55.924Z,54.60
2018-12-13T09:27:56.950Z,54.70
2018-12-13T09:28:58.100Z,55.40
2018-12-13T09:29:59.074Z,55.00
2018-12-13T09:31:00.113Z,55.10
2018-12-13T09:32:01.104Z,54.90
2018-12-13T09:33:02.108Z,54.60
2018-12-13T09:34:03.299Z,54.60
2018-12-13T09:35:04.496Z,54.60
2018-12-13T09:36:05.498Z,54.80
2018-12-13T09:37:06.532Z,54.60
2018-12-13T09:38:07.508Z,54.60
2018-12-13T09:39:08.596Z,54.70
2018-12-13T09:40:09.589Z,54.70
2018-12-13T09:41:10.671Z,54.70
2018-12-13T09:42:11.672Z,54.80
2018-12-13T09:43:12.677Z,55.00
2018-12-13T09:44:13.886Z,55.10
2018-12-13T09:45:15.146Z,54.30
2018-12-13T09:46:16.343Z,53.90
2018-12-13T09:47:17.447Z,53.50
2018-12-13T09:48:25.451Z,54.00
2018-12-13T09:49:26.438Z,54.10
2018-12-13T09:50:27.449Z,53.90
2018-12-13T09:51:28.440Z,54.50
2018-12-13T09:52:29.443Z,54.50
2018-12-13T09:53:30.436Z,54.60
2018-12-13T09:54:32.394Z,54.70
2018-12-13T09:55:33.375Z,54.50
2018-12-13T09:56:34.359Z,54.30
2018-12-13T09:57:35.343Z,54.50
2018-12-13T09:58:36.400Z,54.50
2018-12-13T09:59:37.508Z,54.60
2018-12-13T10:00:38.516Z,54.70
2018-12-13T10:01:39.652Z,54.00
2018-12-13T10:02:40.636Z,54.70
2018-12-13T10:03:41.628Z,54.50
2018-12-13T10:04:42.629Z,54.70
2018-12-13T10:05:43.630Z,54.50
2018-12-13T10:06:44.706Z,54.70
2018-12-13T10:07:45.701Z,54.50
2018-12-13T10:08:46.689Z,54.40
2018-12-13T10:09:47.734Z,54.20
2018-12-13T10:10:48.952Z,54.20
2018-12-13T10:11:50.148Z,54.20
2018-12-13T10:12:51.140Z,54.10
2018-12-13T10:13:52.187Z,54.20
2018-12-13T10:14:53.252Z,54.30
2018-12-13T10:15:55.080Z,54.70
2018-12-13T10:16:56.180Z,54.40
2018-12-13T10:17:57.316Z,54.60
2018-12-13T10:18:58.511Z,54.30
2018-12-13T10:19:59.631Z,54.30
2018-12-13T10:21:01.623Z,54.30
2018-12-13T10:22:03.008Z,54.60
2018-12-13T10:23:04.400Z,54.70
2018-12-13T10:24:05.394Z,54.50
2018-12-13T10:25:06.518Z,54.80
2018-12-13T10:26:07.603Z,54.80
2018-12-13T10:27:08.593Z,54.80
2018-12-13T10:28:09.674Z,54.90
2018-12-13T10:29:10.715Z,54.50
2018-12-13T10:30:12.237Z,54.60
2018-12-13T10:31:13.320Z,54.80
2018-12-13T10:32:14.557Z,54.60
2018-12-13T10:33:15.649Z,54.90
2018-12-13T10:34:16.659Z,54.70
2018-12-13T10:35:17.808Z,54.90
2018-12-13T10:36:18.800Z,54.90
2018-12-13T10:37:19.820Z,54.90
2018-12-13T10:38:20.852Z,55.10
2018-12-13T10:39:21.955Z,54.90
2018-12-13T10:40:23.113Z,55.20
2018-12-13T10:41:24.103Z,54.90
2018-12-13T10:42:25.188Z,55.00
2018-12-13T10:43:26.275Z,54.90
2018-12-13T10:44:34.075Z,54.90
2018-12-13T10:45:35.128Z,54.90
2018-12-13T10:46:36.377Z,54.90
2018-12-13T10:47:37.467Z,55.30
2018-12-13T10:48:38.516Z,55.40
2018-12-13T10:49:39.577Z,55.30
2018-12-13T10:50:40.647Z,54.90
2018-12-13T10:51:41.768Z,54.90
2018-12-13T10:52:42.791Z,54.90
2018-12-13T10:53:43.769Z,54.90
2018-12-13T10:54:44.793Z,54.90
2018-12-13T10:55:45.799Z,54.60
2018-12-13T10:56:46.826Z,54.40
2018-12-13T10:57:47.827Z,54.10
2018-12-13T10:58:48.954Z,54.10
2018-12-13T10:59:49.943Z,54.50
2018-12-13T11:00:57.023Z,54.70
2018-12-13T11:02:00.263Z,54.40
2018-12-13T11:03:18.694Z,54.30
2018-12-13T11:04:19.687Z,54.00
2018-12-13T11:05:21.075Z,54.10
2018-12-13T11:06:22.109Z,54.00
2018-12-13T11:07:23.283Z,54.00
2018-12-13T11:08:24.388Z,54.40
2018-12-13T11:09:25.368Z,54.50
2018-12-13T11:10:26.487Z,54.30
2018-12-13T11:11:27.468Z,54.00
2018-12-13T11:12:28.611Z,54.20
2018-12-13T11:13:29.638Z,54.10
2018-12-13T11:14:30.735Z,53.80
2018-12-13T11:15:31.802Z,54.30
2018-12-13T11:16:32.823Z,54.00
2018-12-13T11:17:33.828Z,54.00
2018-12-13T11:18:34.864Z,54.00
2018-12-13T11:19:36.171Z,54.30
2018-12-13T11:20:37.282Z,55.10
2018-12-13T11:21:38.535Z,54.30
2018-12-13T11:22:39.519Z,54.20
2018-12-13T11:23:40.600Z,54.70
2018-12-13T11:24:41.623Z,54.70
2018-12-13T11:25:42.630Z,54.70
2018-12-13T11:26:43.721Z,54.40
2018-12-13T11:28:08.653Z,54.60
2018-12-13T11:29:21.900Z,54.80
2018-12-13T11:30:23.688Z,54.30
2018-12-13T11:31:24.756Z,54.10
2018-12-13T11:32:25.771Z,54.50
2018-12-13T11:33:26.969Z,54.70
2018-12-13T11:34:28.032Z,54.60
2018-12-13T11:35:29.115Z,55.40
2018-12-13T11:36:30.163Z,54.70
2018-12-13T11:37:31.180Z,54.70
2018-12-13T11:38:32.322Z,54.60
2018-12-13T11:39:33.327Z,54.80
2018-12-13T11:40:34.468Z,54.60
2018-12-13T11:41:35.740Z,54.60
2018-12-13T11:42:36.833Z,54.80
2018-12-13T11:43:37.801Z,55.00
2018-12-13T11:44:38.900Z,55.10
2018-12-13T11:45:40.112Z,55.30
2018-12-13T11:46:41.104Z,55.20
2018-12-13T11:47:42.119Z,55.40
2018-12-13T11:48:43.181Z,55.20
2018-12-13T11:49:44.221Z,55.40
2018-12-13T11:50:45.193Z,55.70
2018-12-13T11:51:46.291Z,56.00
2018-12-13T11:52:47.377Z,56.20
2018-12-13T11:53:48.816Z,56.30
2018-12-13T11:54:49.891Z,56.50
2018-12-13T11:55:54.234Z,56.60
2018-12-13T11:56:55.359Z,56.40
2018-12-13T11:57:56.676Z,56.70
2018-12-13T11:58:57.696Z,56.60
2018-12-13T11:59:58.726Z,56.30
2018-12-13T12:00:59.728Z,56.30
2018-12-13T12:02:00.818Z,56.50
2018-12-13T12:03:01.957Z,56.70
2018-12-13T12:04:03.074Z,56.70
2018-12-13T12:05:04.205Z,56.90
2018-12-13T12:06:05.295Z,56.70
2018-12-13T12:07:06.320Z,56.40
2018-12-13T12:08:07.401Z,56.40
2018-12-13T12:09:12.230Z,56.40
2018-12-13T12:10:11.772Z,56.80
2018-12-13T12:11:12.859Z,56.70
2018-12-13T12:12:13.891Z,57.10
2018-12-13T12:13:14.865Z,57.60
2018-12-13T12:14:15.900Z,56.90
2018-12-13T12:15:17.103Z,56.90
2018-12-13T12:16:18.111Z,57.30
2018-12-13T12:17:19.146Z,57.50
2018-12-13T12:18:20.217Z,57.20
2018-12-13T12:19:21.293Z,57.00
2018-12-13T12:20:22.329Z,57.00
2018-12-13T12:21:23.353Z,57.00
2018-12-13T12:22:24.388Z,57.30
2018-12-13T12:23:25.357Z,56.90
2018-12-13T12:24:26.322Z,56.50
2018-12-13T12:25:27.428Z,56.80
2018-12-13T12:26:28.532Z,56.90
2018-12-13T12:27:29.519Z,56.90
2018-12-13T12:28:30.732Z,57.10
2018-12-13T12:29:32.460Z,56.20
2018-12-13T12:30:40.536Z,56.60
2018-12-13T12:31:41.527Z,56.70
2018-12-13T12:32:42.503Z,56.50
2018-12-13T12:33:43.541Z,57.20
2018-12-13T12:34:44.748Z,57.20
2018-12-13T12:35:45.736Z,57.40
2018-12-13T12:36:46.736Z,56.80
2018-12-13T12:37:47.797Z,57.00
2018-12-13T12:38:48.871Z,57.20
2018-12-13T12:39:49.867Z,57.20
2018-12-13T12:40:50.892Z,57.50
2018-12-13T12:41:51.889Z,56.90
2018-12-13T12:42:52.888Z,56.90
2018-12-13T12:43:53.899Z,56.70
2018-12-13T12:44:54.867Z,56.70
2018-12-13T12:45:55.857Z,56.90
2018-12-13T12:46:56.844Z,57.00
2018-12-13T12:47:57.843Z,56.00
2018-12-13T12:48:58.828Z,57.00
2018-12-13T12:49:59.903Z,56.10
2018-12-13T12:51:00.972Z,56.20
2018-12-13T12:52:02.149Z,56.10
2018-12-13T12:53:03.253Z,56.20
2018-12-13T12:54:04.236Z,56.10
2018-12-13T12:55:05.421Z,56.10
2018-12-13T12:56:06.432Z,56.10
2018-12-13T12:57:07.527Z,55.90
2018-12-13T12:58:08.707Z,56.00
2018-12-13T12:59:09.679Z,56.00
2018-12-13T13:00:10.933Z,56.10
2018-12-13T13:01:12.214Z,55.80
2018-12-13T13:02:13.317Z,55.70
2018-12-13T13:03:14.357Z,55.50
2018-12-13T13:04:15.368Z,55.80
2018-12-13T13:05:16.347Z,55.90
2018-12-13T13:06:17.339Z,55.50
2018-12-13T13:07:18.351Z,55.50
2018-12-13T13:08:19.345Z,55.50
2018-12-13T13:09:24.949Z,55.60
2018-12-13T13:10:23.426Z,55.60